Time;durP1;ratioP1;P1;durP2;ratioP2;P2;SDS_P1;SDS_P2;PMS_P1;PMS_P2;Temp;Humidity;BMP_temperature;BMP_pressure;BME280_temperature;BME280_humidity;BME280_pressure;Samples;Min_cycle;Max_cycle;Signal;HPM_P1;HPM_P2
2022/09/03 00:02:16;;;;;;;2.35;1.23;;;;;;;20.96;34.36;101564.03;5044032;27;96694;-69
2022/09/03 00:04:50;;;;;;;4.25;1.05;;;;;;;21.12;33.83;101566.59;5048931;27;96745;-67
2022/09/03 00:07:21;;;;;;;6.13;1.08;;;;;;;21.06;33.89;101568.72;5046061;27;98980;-68
2022/09/03 00:09:57;;;;;;;1.48;1.10;;;;;;;21.02;34.05;101569.88;5051382;27;98912;-67
2022/09/03 00:12:27;;;;;;;10.07;0.85;;;;;;;20.96;34.53;101559.53;5046995;27;96850;-68
2022/09/03 00:15:01;;;;;;;3.70;1.00;;;;;;;20.98;34.40;101551.38;5052325;27;97359;-68
2022/09/03 00:17:32;;;;;;;4.90;0.88;;;;;;;20.93;34.14;101562.44;5046261;27;99321;-68
2022/09/03 00:20:03;;;;;;;4.57;1.05;;;;;;;20.94;34.46;101556.06;5047889;27;99034;-68
2022/09/03 00:22:33;;;;;;;2.83;1.00;;;;;;;20.67;35.09;101564.16;5045844;27;97027;-68
2022/09/03 00:25:04;;;;;;;2.05;1.05;;;;;;;20.76;34.58;101567.16;5048455;27;97166;-68
2022/09/03 00:27:37;;;;;;;1.60;0.93;;;;;;;20.83;34.64;101561.31;5048075;27;99046;-68
2022/09/03 00:30:08;;;;;;;2.20;0.65;;;;;;;20.64;35.11;101568.84;5049476;27;98877;-68
2022/09/03 00:32:42;;;;;;;5.40;0.98;;;;;;;20.55;35.26;101566.72;5047943;27;97251;-67
2022/09/03 00:35:15;;;;;;;5.53;0.95;;;;;;;20.53;35.08;101555.25;5040687;27;97476;-68
2022/09/03 00:37:42;;;;;;;1.15;0.70;;;;;;;20.70;35.05;101560.38;5043789;27;99036;-66
2022/09/03 00:40:23;;;;;;;2.47;0.98;;;;;;;20.61;35.06;101561.81;5048472;27;98916;-67
2022/09/03 00:43:00;;;;;;;1.75;1.02;;;;;;;20.56;35.14;101563.09;5049088;27;96873;-67
2022/09/03 00:45:37;;;;;;;4.00;1.05;;;;;;;20.52;35.57;101548.16;5049079;27;96762;-67
2022/09/03 00:48:17;;;;;;;3.13;0.70;;;;;;;20.49;35.72;101559.94;5051111;27;102602;-67
2022/09/03 00:51:01;;;;;;;4.13;0.95;;;;;;;20.55;35.44;101556.00;5050814;27;101285;-67
2022/09/03 00:53:35;;;;;;;1.13;0.80;;;;;;;20.47;35.63;101553.81;5053602;27;97076;-66
2022/09/03 00:56:11;;;;;;;2.05;0.73;;;;;;;20.56;35.21;101549.66;5050035;27;96743;-67
2022/09/03 00:58:50;;;;;;;3.33;1.20;;;;;;;20.49;35.50;101559.06;5043557;27;99317;-66
2022/09/03 01:01:22;;;;;;;2.35;0.80;;;;;;;20.44;35.51;101556.69;5051862;27;98847;-68
2022/09/03 01:03:57;;;;;;;2.17;0.85;;;;;;;20.52;35.39;101554.38;5049414;27;96758;-67
2022/09/03 01:06:33;;;;;;;3.25;0.80;;;;;;;20.39;35.75;101548.06;5056718;27;97176;-68
2022/09/03 01:09:12;;;;;;;1.58;0.73;;;;;;;20.35;36.56;101546.53;5044787;27;99014;-68
2022/09/03 01:11:49;;;;;;;2.17;1.00;;;;;;;20.38;35.73;101546.34;5047330;27;98926;-67
2022/09/03 01:14:26;;;;;;;2.03;0.98;;;;;;;20.45;35.53;101554.88;5047888;27;96770;-68
2022/09/03 01:17:02;;;;;;;1.15;0.93;;;;;;;20.30;36.20;101545.94;5041656;27;97475;-66
2022/09/03 01:20:01;;;;;;;2.40;1.40;;;;;;;20.39;36.16;101542.69;5052594;27;99124;-67
2022/09/03 01:23:00;;;;;;;2.03;1.00;;;;;;;20.28;35.93;101546.00;5050533;27;98648;-67
2022/09/03 01:25:45;;;;;;;2.17;0.80;;;;;;;20.25;36.34;101540.88;5048109;27;96786;-66
2022/09/03 01:28:22;;;;;;;1.92;0.80;;;;;;;20.15;36.19;101541.56;5046701;27;96943;-67
2022/09/03 01:30:56;;;;;;;1.40;0.70;;;;;;;20.22;36.16;101541.03;5051405;27;99102;-70
2022/09/03 01:33:31;;;;;;;2.22;0.60;;;;;;;20.04;36.34;101534.16;5050515;27;98930;-66
2022/09/03 01:36:07;;;;;;;4.25;1.20;;;;;;;20.05;36.57;101532.34;5040119;27;98158;-66
2022/09/03 01:38:41;;;;;;;1.52;0.90;;;;;;;19.98;36.40;101526.50;5051502;27;96785;-67
2022/09/03 01:44:15;;;;;;;1.95;0.98;;;;;;;20.14;36.29;101524.59;5047521;27;97779;-67
2022/09/03 01:46:44;;;;;;;1.17;0.88;;;;;;;20.00;36.85;101529.94;5051968;27;96756;-66
2022/09/03 01:49:21;;;;;;;3.45;1.00;;;;;;;20.12;36.42;101528.31;5051689;27;97152;-67
2022/09/03 01:51:54;;;;;;;3.53;1.20;;;;;;;20.02;36.46;101524.50;5042576;27;99044;-67
2022/09/03 01:54:35;;;;;;;6.70;0.90;;;;;;;19.94;36.70;101526.78;5050010;27;101452;-67
2022/09/03 01:57:32;;;;;;;2.50;0.90;;;;;;;20.04;36.53;101534.16;5042575;27;96857;-67
2022/09/03 02:00:05;;;;;;;1.17;0.88;;;;;;;19.93;36.58;101530.41;5044990;27;96820;-68
2022/09/03 02:02:34;;;;;;;2.40;1.13;;;;;;;19.99;36.55;101532.72;5050589;27;98305;-66
2022/09/03 02:05:05;;;;;;;3.55;0.90;;;;;;;20.05;36.37;101529.66;5048900;27;99754;-67
2022/09/03 02:07:34;;;;;;;3.17;1.00;;;;;;;20.03;36.43;101535.09;5050826;27;97607;-68
2022/09/03 02:10:05;;;;;;;1.25;0.75;;;;;;;19.89;36.67;101538.63;5047399;27;97819;-67
2022/09/03 02:12:35;;;;;;;2.08;0.80;;;;;;;19.96;36.73;101533.75;5050875;27;98946;-67
2022/09/03 02:15:10;;;;;;;1.45;0.73;;;;;;;19.98;36.72;101534.53;5051147;27;98819;-67
2022/09/03 02:17:37;;;;;;;1.92;1.10;;;;;;;20.03;36.62;101532.41;5046205;27;96836;-68
2022/09/03 02:20:09;;;;;;;5.28;1.10;;;;;;;19.85;36.96;101539.81;5051129;27;97799;-67
2022/09/03 02:22:35;;;;;;;3.05;0.90;;;;;;;19.95;36.79;101540.13;5051960;27;98986;-68
2022/09/03 02:25:02;;;;;;;2.75;0.90;;;;;;;19.85;36.96;101530.88;5044793;27;98964;-67
2022/09/03 02:27:29;;;;;;;1.00;0.60;;;;;;;19.73;36.99;101531.66;5051669;27;96854;-67
2022/09/03 02:29:56;;;;;;;4.22;1.00;;;;;;;19.70;37.14;101542.53;5050480;27;96912;-67
2022/09/03 02:32:24;;;;;;;2.60;0.90;;;;;;;19.65;36.95;101542.84;5055026;27;99029;-67
2022/09/03 02:34:52;;;;;;;3.03;0.90;;;;;;;19.43;37.65;101542.34;5044803;27;99421;-68
2022/09/03 02:37:19;;;;;;;6.97;0.90;;;;;;;19.72;37.08;101540.66;5051093;27;96799;-68
2022/09/03 02:39:46;;;;;;;7.30;0.98;;;;;;;19.74;36.89;101542.28;5045784;27;96810;-67
2022/09/03 02:42:14;;;;;;;1.15;0.73;;;;;;;19.60;37.27;101538.72;5049808;27;97893;-67
2022/09/03 02:44:44;;;;;;;1.63;0.90;;;;;;;19.70;37.02;101538.03;5046096;27;98925;-71
2022/09/03 02:47:11;;;;;;;4.07;1.02;;;;;;;19.54;37.31;101541.75;5046283;27;96757;-67
2022/09/03 02:49:41;;;;;;;1.60;0.93;;;;;;;19.76;36.62;101544.84;5050349;27;97334;-67
2022/09/03 02:52:11;;;;;;;1.83;0.90;;;;;;;19.70;37.11;101542.53;5048236;27;98880;-67
2022/09/03 02:54:39;;;;;;;2.50;0.90;;;;;;;19.73;37.00;101542.38;5049085;27;98906;-68
2022/09/03 02:57:09;;;;;;;1.52;0.85;;;;;;;19.44;37.54;101542.28;5046454;27;96783;-68
2022/09/03 02:59:36;;;;;;;1.42;0.75;;;;;;;19.50;37.29;101539.25;5049739;27;97704;-66
2022/09/03 03:02:04;;;;;;;1.50;0.93;;;;;;;19.41;37.50;101536.25;5047346;27;99009;-67
2022/09/03 03:04:34;;;;;;;7.38;1.30;;;;;;;19.61;37.03;101537.75;5048776;27;100573;-67
2022/09/03 03:07:01;;;;;;;2.17;1.00;;;;;;;19.52;37.35;101531.13;5047420;27;97235;-67
2022/09/03 03:09:38;;;;;;;2.15;1.00;;;;;;;19.39;37.31;101532.78;5050171;27;96817;-67
2022/09/03 03:12:06;;;;;;;1.35;0.95;;;;;;;19.44;37.38;101539.59;5048424;27;99246;-67
2022/09/03 03:14:32;;;;;;;2.70;1.00;;;;;;;19.36;37.39;101533.81;5053596;27;99010;-66
2022/09/03 03:16:58;;;;;;;5.78;0.90;;;;;;;19.37;37.30;101534.69;5045690;27;96681;-68
2022/09/03 03:19:26;;;;;;;1.13;0.85;;;;;;;19.34;37.50;101530.38;5054250;27;96862;-67
2022/09/03 03:21:53;;;;;;;4.03;1.10;;;;;;;19.45;37.25;101533.28;5051073;27;98960;-67
2022/09/03 03:24:20;;;;;;;3.28;0.98;;;;;;;19.19;37.83;101528.59;5048910;27;99903;-66
2022/09/03 03:26:47;;;;;;;2.70;1.00;;;;;;;19.18;37.59;101534.06;5049090;27;97337;-68
2022/09/03 03:29:16;;;;;;;2.28;1.02;;;;;;;19.03;37.79;101542.03;5047626;27;97171;-67
2022/09/03 03:31:43;;;;;;;3.40;0.98;;;;;;;19.16;37.74;101552.06;5047593;27;100139;-67
2022/09/03 03:34:09;;;;;;;1.65;0.90;;;;;;;18.96;38.02;101547.84;5046879;27;98161;-67
2022/09/03 03:36:38;;;;;;;3.55;1.00;;;;;;;19.10;37.93;101547.88;5045695;27;97852;-66
2022/09/03 03:39:06;;;;;;;2.55;1.05;;;;;;;19.09;37.77;101548.88;5046490;27;96855;-67
2022/09/03 03:41:36;;;;;;;3.78;0.90;;;;;;;19.15;37.70;101543.16;5048388;27;98372;-67
2022/09/03 03:44:04;;;;;;;2.45;0.90;;;;;;;18.82;38.47;101547.78;5047855;27;99563;-68
2022/09/03 03:46:33;;;;;;;4.63;0.90;;;;;;;19.00;37.91;101557.44;5047513;27;97332;-68
2022/09/03 03:49:00;;;;;;;2.63;1.08;;;;;;;19.06;37.91;101559.75;5050215;27;96908;-67
2022/09/03 03:51:27;;;;;;;3.25;1.05;;;;;;;19.26;37.53;101564.81;5046051;27;99134;-66
2022/09/03 03:53:55;;;;;;;2.45;1.10;;;;;;;19.07;37.73;101558.81;5052894;27;99162;-66
2022/09/03 03:56:23;;;;;;;3.10;0.80;;;;;;;19.02;38.38;101559.06;5045712;27;97252;-68
2022/09/03 03:58:51;;;;;;;5.53;1.10;;;;;;;19.14;37.76;101556.63;5048712;27;97070;-67
2022/09/03 04:01:21;;;;;;;1.55;1.10;;;;;;;19.04;37.94;101562.50;5044557;27;98843;-67
2022/09/03 04:03:47;;;;;;;2.00;1.13;;;;;;;19.01;37.73;101549.31;5042217;27;98833;-66
2022/09/03 04:06:16;;;;;;;3.35;0.98;;;;;;;18.97;38.03;101552.25;5045703;27;96717;-67
2022/09/03 04:08:44;;;;;;;5.25;1.23;;;;;;;19.32;37.56;101552.84;5045697;27;96936;-67
2022/09/03 04:11:14;;;;;;;3.28;1.38;;;;;;;19.36;37.37;101554.44;5046735;27;98888;-68
2022/09/03 04:13:41;;;;;;;2.92;1.00;;;;;;;19.26;37.42;101547.88;5045647;27;99068;-67
2022/09/03 04:16:11;;;;;;;2.22;1.20;;;;;;;19.16;37.79;101544.88;5048672;27;96914;-68
2022/09/03 04:18:38;;;;;;;3.28;1.05;;;;;;;19.23;37.76;101550.75;5044275;27;97226;-67
2022/09/03 04:21:06;;;;;;;1.92;0.88;;;;;;;19.29;37.60;101559.28;5049980;27;98911;-67
2022/09/03 04:23:34;;;;;;;2.20;1.15;;;;;;;19.35;37.36;101548.19;5047881;27;99424;-67
2022/09/03 04:26:01;;;;;;;6.43;1.58;;;;;;;19.34;37.43;101548.28;5052336;27;96809;-67
2022/09/03 04:28:28;;;;;;;4.78;1.25;;;;;;;19.23;37.62;101548.06;5052541;27;96883;-66
2022/09/03 04:30:54;;;;;;;2.80;1.30;;;;;;;19.20;37.81;101551.78;5052223;27;99532;-67
2022/09/03 04:33:27;;;;;;;3.00;0.80;;;;;;;19.25;37.47;101552.34;5050265;27;99345;-67
2022/09/03 04:36:02;;;;;;;5.13;1.52;;;;;;;19.26;37.67;101553.22;5051275;27;97225;-69
2022/09/03 04:38:30;;;;;;;2.65;1.20;;;;;;;19.34;38.05;101548.28;5052172;27;98180;-66
2022/09/03 04:40:58;;;;;;;4.53;1.30;;;;;;;19.14;38.26;101551.28;5051158;27;98955;-67
2022/09/03 04:43:24;;;;;;;2.10;0.98;;;;;;;19.18;38.32;101551.00;5050582;27;98736;-66
2022/09/03 04:45:51;;;;;;;4.10;1.30;;;;;;;19.28;38.15;101552.19;5049929;27;96839;-67
2022/09/03 04:48:20;;;;;;;3.80;1.38;;;;;;;19.31;38.00;101546.63;5047572;27;97162;-67
2022/09/03 04:50:47;;;;;;;2.20;1.40;;;;;;;19.30;38.19;101544.91;5052866;27;98041;-67
2022/09/03 04:53:14;;;;;;;8.05;1.33;;;;;;;19.31;38.20;101552.00;5048430;27;98804;-68
2022/09/03 04:55:40;;;;;;;1.77;1.10;;;;;;;19.37;38.04;101550.75;5051813;27;96833;-67
2022/09/03 04:58:07;;;;;;;1.48;1.10;;;;;;;19.30;38.35;101555.63;5047944;27;96824;-67
2022/09/03 05:00:35;;;;;;;4.88;0.98;;;;;;;19.31;38.42;101556.50;5046641;27;99033;-66
2022/09/03 05:03:04;;;;;;;3.50;1.20;;;;;;;19.38;38.54;101558.72;5050144;27;98797;-67
2022/09/03 05:05:33;;;;;;;2.10;1.13;;;;;;;19.54;38.39;101553.34;5041789;27;97770;-67
2022/09/03 05:08:01;;;;;;;4.20;1.58;;;;;;;19.68;38.13;101549.84;5053374;27;96690;-66
2022/09/03 05:10:28;;;;;;;3.40;1.10;;;;;;;19.73;37.87;101553.97;5051904;27;98975;-67
2022/09/03 05:13:00;;;;;;;7.72;1.50;;;;;;;19.57;38.54;101560.31;5050337;27;98851;-66
2022/09/03 05:15:27;;;;;;;3.88;1.40;;;;;;;19.21;39.15;101556.19;5046269;27;96793;-66
2022/09/03 05:17:57;;;;;;;2.90;1.52;;;;;;;19.53;38.91;101558.81;5051481;27;96768;-67
2022/09/03 05:20:27;;;;;;;4.43;1.33;;;;;;;19.53;38.76;101558.81;5050950;27;101794;-66
2022/09/03 05:22:56;;;;;;;3.08;1.27;;;;;;;19.61;38.70;101560.06;5051199;27;98902;-66
2022/09/03 05:25:24;;;;;;;4.30;1.38;;;;;;;19.55;39.16;101564.94;5053825;27;96789;-67
2022/09/03 05:27:50;;;;;;;5.55;1.23;;;;;;;19.61;39.09;101570.81;5051669;27;96913;-67
2022/09/03 05:30:17;;;;;;;3.22;1.40;;;;;;;19.75;38.82;101572.66;5051316;27;99338;-66
2022/09/03 05:32:44;;;;;;;7.13;1.35;;;;;;;19.71;39.02;101568.41;5055891;27;98782;-68
2022/09/03 05:35:11;;;;;;;5.35;1.17;;;;;;;19.73;39.05;101569.19;5041942;27;96804;-65
2022/09/03 05:37:38;;;;;;;3.40;1.73;;;;;;;19.83;38.78;101564.97;5051323;27;97110;-66
2022/09/03 05:40:09;;;;;;;3.38;1.23;;;;;;;19.85;39.08;101565.75;5051287;27;99300;-67
2022/09/03 05:42:37;;;;;;;3.03;1.70;;;;;;;19.96;38.74;101571.31;5050180;27;99613;-66
2022/09/03 05:45:08;;;;;;;4.55;1.60;;;;;;;20.15;38.40;101565.69;5051237;27;96876;-67
2022/09/03 05:47:35;;;;;;;6.05;1.45;;;;;;;20.03;39.10;101564.63;5050735;27;96882;-67
2022/09/03 05:50:01;;;;;;;2.47;1.27;;;;;;;20.01;38.78;101563.00;5051226;27;99146;-68
2022/09/03 05:52:27;;;;;;;2.35;1.33;;;;;;;20.01;39.22;101571.91;5049697;27;98952;-67
2022/09/03 05:54:55;;;;;;;1.88;1.30;;;;;;;20.08;38.96;101565.22;5052192;27;96868;-67
2022/09/03 05:57:22;;;;;;;4.95;1.65;;;;;;;20.16;38.86;101570.06;5049812;27;97632;-67
2022/09/03 05:59:50;;;;;;;2.60;1.50;;;;;;;20.05;39.22;101568.06;5049770;27;98903;-67
2022/09/03 06:02:18;;;;;;;2.00;1.35;;;;;;;20.13;39.10;101565.78;5049598;27;98813;-67
2022/09/03 06:04:45;;;;;;;4.20;1.75;;;;;;;19.90;39.55;101572.56;5049941;27;96864;-67
2022/09/03 06:07:14;;;;;;;4.72;1.35;;;;;;;20.22;39.01;101567.88;5055958;27;97734;-66
2022/09/03 06:09:40;;;;;;;3.75;1.77;;;;;;;20.20;39.09;101568.94;5050620;27;100997;-67
2022/09/03 06:12:07;;;;;;;9.65;2.05;;;;;;;20.25;39.28;101575.75;5050756;27;98062;-68
2022/09/03 06:14:35;;;;;;;3.65;1.75;;;;;;;20.45;38.75;101574.53;5050509;27;96825;-68
2022/09/03 06:17:03;;;;;;;3.60;1.30;;;;;;;20.64;38.23;101572.38;5049360;27;97124;-66
2022/09/03 06:19:29;;;;;;;2.17;1.38;;;;;;;20.63;38.42;101573.34;5049205;27;99135;-66
2022/09/03 06:21:56;;;;;;;4.07;1.23;;;;;;;20.99;37.89;101564.72;5047844;27;99011;-67
2022/09/03 06:24:23;;;;;;;5.13;1.67;;;;;;;20.93;37.82;101569.63;5048038;27;98719;-66
2022/09/03 06:26:50;;;;;;;6.88;1.35;;;;;;;21.24;37.47;101571.19;5050651;27;97328;-66
2022/09/03 06:29:19;;;;;;;3.28;1.58;;;;;;;21.05;37.65;101569.69;5049558;27;98820;-67
2022/09/03 06:31:47;;;;;;;6.45;1.50;;;;;;;20.90;37.91;101576.06;5044326;27;98854;-66
2022/09/03 06:34:18;;;;;;;4.97;1.98;;;;;;;21.12;37.49;101574.66;5047426;27;97582;-67
2022/09/03 06:36:46;;;;;;;5.60;1.70;;;;;;;21.07;37.50;101575.78;5051089;27;96872;-66
2022/09/03 06:39:17;;;;;;;5.32;1.80;;;;;;;21.00;37.74;101577.16;5049955;27;99242;-67
2022/09/03 06:41:50;;;;;;;4.10;2.40;;;;;;;21.01;37.92;101572.66;5051547;27;100802;-68
2022/09/03 06:44:17;;;;;;;3.65;1.45;;;;;;;20.99;37.81;101578.16;5049264;27;96899;-67
2022/09/03 06:46:44;;;;;;;3.08;1.60;;;;;;;21.21;37.39;101582.13;5051122;27;98077;-67
2022/09/03 06:49:11;;;;;;;5.35;1.58;;;;;;;21.22;37.25;101578.47;5052694;27;98935;-68
2022/09/03 06:51:39;;;;;;;3.50;1.60;;;;;;;21.46;36.90;101587.59;5045800;27;98906;-68
2022/09/03 06:54:10;;;;;;;4.40;1.65;;;;;;;21.56;36.89;101580.63;5047672;27;96982;-69
2022/09/03 06:56:40;;;;;;;4.22;1.50;;;;;;;21.65;36.85;101571.06;5046076;27;96721;-67
2022/09/03 06:59:10;;;;;;;3.38;1.80;;;;;;;21.38;37.58;101580.03;5048046;27;99960;-68
2022/09/03 07:01:39;;;;;;;4.10;1.70;;;;;;;21.52;37.35;101575.56;5047220;27;100299;-67
2022/09/03 07:04:07;;;;;;;2.90;1.42;;;;;;;21.64;37.13;101578.25;5047244;27;97183;-70
2022/09/03 07:06:37;;;;;;;2.15;1.02;;;;;;;21.74;36.45;101583.84;5047548;27;96913;-69
2022/09/03 07:09:06;;;;;;;2.13;1.25;;;;;;;21.75;36.63;101575.69;5046334;27;99881;-67
2022/09/03 07:11:34;;;;;;;3.47;1.42;;;;;;;21.83;36.88;101576.03;5049391;27;98866;-67
2022/09/03 07:14:05;;;;;;;4.35;1.25;;;;;;;21.84;36.65;101580.44;5040224;27;97560;-68
2022/09/03 07:16:34;;;;;;;2.25;1.27;;;;;;;21.79;36.59;101573.66;5050623;27;97081;-68
2022/09/03 07:19:02;;;;;;;4.13;1.50;;;;;;;21.73;36.80;101577.63;5045227;27;98831;-68
2022/09/03 07:21:32;;;;;;;12.15;1.80;;;;;;;21.99;36.53;101578.53;5050287;27;101524;-67
2022/09/03 07:24:01;;;;;;;3.08;1.42;;;;;;;22.18;36.42;101578.97;5048294;27;96779;-67
2022/09/03 07:26:31;;;;;;;4.18;1.60;;;;;;;22.08;35.92;101588.66;5048861;27;96963;-67
2022/09/03 07:28:59;;;;;;;10.68;1.52;;;;;;;22.18;35.70;101586.19;5049774;27;100413;-67
2022/09/03 07:31:29;;;;;;;5.63;1.70;;;;;;;22.21;36.07;101584.13;5049409;27;101189;-69
2022/09/03 07:33:57;;;;;;;8.63;1.75;;;;;;;22.58;35.31;101587.72;5049099;27;96827;-68
2022/09/03 07:36:25;;;;;;;7.40;2.22;;;;;;;22.65;35.22;101589.00;5049117;27;97316;-68
2022/09/03 07:38:55;;;;;;;9.65;1.80;;;;;;;22.49;35.51;101583.03;5049443;27;98955;-67
2022/09/03 07:41:21;;;;;;;7.78;1.48;;;;;;;22.75;35.41;101583.00;5045112;27;99159;-68
2022/09/03 07:43:49;;;;;;;12.63;2.67;;;;;;;23.00;35.04;101578.38;5049350;27;96953;-68
2022/09/03 07:46:19;;;;;;;7.00;1.60;;;;;;;23.12;34.58;101581.13;5050031;27;96688;-67
2022/09/03 07:48:49;;;;;;;3.38;1.55;;;;;;;22.99;34.51;101584.72;5045118;27;101688;-68
2022/09/03 07:51:16;;;;;;;4.75;1.85;;;;;;;23.11;34.45;101588.34;5045520;27;98973;-68
2022/09/03 07:53:43;;;;;;;3.10;1.25;;;;;;;23.20;34.32;101584.97;5049184;27;96714;-67
2022/09/03 07:56:13;;;;;;;6.20;1.45;;;;;;;23.27;34.13;101591.63;5047515;27;96982;-68
2022/09/03 07:58:41;;;;;;;6.30;1.55;;;;;;;23.18;34.40;101586.91;5046986;27;99366;-68
2022/09/03 08:01:12;;;;;;;4.43;1.40;;;;;;;23.35;33.86;101594.59;5049656;27;99272;-68
2022/09/03 08:03:39;;;;;;;2.28;1.00;;;;;;;23.56;33.30;101597.53;5047656;27;97702;-66
2022/09/03 08:06:07;;;;;;;2.95;1.38;;;;;;;23.61;33.41;101589.94;5049148;27;96826;-68
2022/09/03 08:08:36;;;;;;;4.90;1.73;;;;;;;23.80;33.50;101589.38;5047226;27;99030;-68
2022/09/03 08:11:08;;;;;;;3.80;1.30;;;;;;;23.74;33.12;101585.34;5046876;27;98833;-68
2022/09/03 08:13:35;;;;;;;3.90;1.52;;;;;;;23.43;33.73;101592.16;5047709;27;96902;-68
2022/09/03 08:16:04;;;;;;;1.58;1.00;;;;;;;23.98;32.74;101587.09;5049764;27;96841;-68
2022/09/03 08:18:34;;;;;;;3.70;1.63;;;;;;;23.80;32.77;101592.09;5047980;27;99054;-67
2022/09/03 08:21:00;;;;;;;2.00;1.27;;;;;;;23.72;32.84;101589.97;5045390;27;98391;-66
2022/09/03 08:23:27;;;;;;;5.13;1.85;;;;;;;23.85;32.63;101589.88;5048158;27;96799;-66
2022/09/03 08:25:58;;;;;;;5.68;2.10;;;;;;;24.14;32.30;101577.66;5045315;27;97784;-67
2022/09/03 08:28:24;;;;;;;8.35;1.40;;;;;;;24.23;32.30;101582.34;5042771;27;99015;-67
2022/09/03 08:30:51;;;;;;;10.05;1.58;;;;;;;24.37;32.27;101583.09;5042709;27;101190;-67
2022/09/03 08:33:35;;;;;;;3.55;1.10;;;;;;;24.53;31.81;101583.59;5049048;27;96885;-67
2022/09/03 08:36:05;;;;;;;3.35;1.77;;;;;;;24.65;31.80;101576.31;5047350;27;96694;-69
2022/09/03 08:38:35;;;;;;;3.13;1.38;;;;;;;24.94;31.31;101574.84;5044173;27;97607;-67
2022/09/03 08:41:09;;;;;;;3.22;1.38;;;;;;;24.92;31.00;101580.38;5047147;27;98865;-68
2022/09/03 08:43:51;;;;;;;2.05;0.90;;;;;;;24.71;30.74;101570.41;5052454;27;96880;-68
2022/09/03 08:46:17;;;;;;;3.20;1.20;;;;;;;24.71;31.10;101565.00;5045841;27;97143;-68
2022/09/03 08:48:46;;;;;;;3.38;1.30;;;;;;;24.76;31.22;101569.06;5051770;27;98818;-66
2022/09/03 08:51:51;;;;;;;6.45;1.20;;;;;;;24.92;31.07;101569.56;5045102;27;98141;-69
2022/09/03 08:54:18;;;;;;;3.45;1.20;;;;;;;24.92;30.39;101566.84;5038718;27;97155;-67
2022/09/03 08:56:46;;;;;;;2.22;1.45;;;;;;;24.90;30.64;101565.25;5048841;27;96893;-67
2022/09/03 08:59:13;;;;;;;4.18;1.20;;;;;;;24.88;30.84;101559.94;5047213;27;99218;-66
2022/09/03 09:01:52;;;;;;;3.38;1.50;;;;;;;25.12;30.45;101564.34;5048034;27;99211;-66
2022/09/03 09:04:33;;;;;;;2.83;1.60;;;;;;;25.09;30.20;101559.16;5037983;27;96898;-66
2022/09/03 09:07:10;;;;;;;5.15;1.50;;;;;;;25.01;30.25;101567.91;5041595;27;96825;-67
2022/09/03 09:09:47;;;;;;;4.43;1.50;;;;;;;24.85;30.70;101562.91;5046596;27;98969;-67
2022/09/03 09:12:22;;;;;;;3.88;1.30;;;;;;;25.21;30.47;101563.53;5049188;27;97410;-67
2022/09/03 09:15:03;;;;;;;2.45;1.50;;;;;;;25.15;30.08;101558.66;5054009;27;96904;-67
2022/09/03 09:17:43;;;;;;;5.38;2.20;;;;;;;24.90;30.64;101560.69;5048854;27;97655;-67
2022/09/03 09:20:19;;;;;;;5.90;1.55;;;;;;;25.34;30.16;101561.53;5048340;27;98482;-66
2022/09/03 09:22:50;;;;;;;3.10;1.33;;;;;;;25.45;29.53;101553.38;5053681;27;98736;-68
2022/09/03 09:25:20;;;;;;;4.13;1.40;;;;;;;25.54;29.88;101551.69;5047448;27;96703;-67
2022/09/03 09:27:53;;;;;;;3.72;1.30;;;;;;;25.45;29.74;101547.09;5057594;27;96882;-67
2022/09/03 09:30:20;;;;;;;6.07;1.40;;;;;;;25.50;29.50;101542.16;5050939;27;99000;-66
2022/09/03 09:32:46;;;;;;;4.18;1.30;;;;;;;25.49;30.14;101535.88;5052273;27;99294;-67
2022/09/03 09:35:14;;;;;;;3.15;1.67;;;;;;;25.79;29.24;101535.97;5052979;27;97609;-66
2022/09/03 09:37:50;;;;;;;4.40;1.70;;;;;;;25.58;29.50;101535.13;5049821;27;97064;-66
2022/09/03 09:40:25;;;;;;;4.75;1.27;;;;;;;25.87;29.89;101537.13;5052948;27;99025;-67
2022/09/03 09:43:02;;;;;;;2.87;1.50;;;;;;;25.82;29.42;101534.84;5051232;27;99500;-66
2022/09/03 09:45:33;;;;;;;4.07;1.20;;;;;;;25.82;29.32;101531.28;5044533;27;96954;-67
2022/09/03 09:48:01;;;;;;;2.90;1.33;;;;;;;25.92;29.13;101529.50;5047551;27;96895;-66
2022/09/03 09:50:28;;;;;;;3.50;1.40;;;;;;;25.94;28.58;101522.06;5051733;27;98938;-69
2022/09/03 09:53:07;;;;;;;2.78;1.00;;;;;;;25.79;28.33;101530.56;5046641;27;97669;-66
2022/09/03 09:55:33;;;;;;;5.00;1.38;;;;;;;25.93;28.18;101523.09;5046790;27;96818;-66
2022/09/03 09:58:08;;;;;;;1.90;1.05;;;;;;;25.93;28.25;101528.50;5048064;27;96856;-67
2022/09/03 10:00:36;;;;;;;4.43;1.33;;;;;;;25.52;28.95;101530.22;5045362;27;97605;-67
2022/09/03 10:03:11;;;;;;;4.20;1.20;;;;;;;25.79;28.90;101532.41;5051799;27;99831;-67
2022/09/03 10:05:40;;;;;;;6.88;1.20;;;;;;;25.93;28.92;101533.91;5048515;27;97108;-70
2022/09/03 10:08:20;;;;;;;5.15;1.08;;;;;;;25.79;27.67;101525.16;5050885;27;97282;-68
2022/09/03 10:10:50;;;;;;;5.95;1.10;;;;;;;26.04;26.53;101504.91;5048941;27;99222;-68
2022/09/03 10:13:23;;;;;;;1.35;0.80;;;;;;;26.08;26.53;101511.75;5049693;27;99662;-70
2022/09/03 10:15:55;;;;;;;6.63;1.00;;;;;;;26.33;26.63;101515.84;5054713;27;96849;-68
2022/09/03 10:18:30;;;;;;;1.13;0.80;;;;;;;26.24;25.71;101507.69;5049853;27;96719;-67
2022/09/03 10:21:05;;;;;;;1.83;0.88;;;;;;;26.07;26.16;101507.31;5047357;27;98934;-67
2022/09/03 10:23:47;;;;;;;6.53;1.20;;;;;;;26.03;25.97;101496.91;5044193;27;98819;-68
2022/09/03 10:26:19;;;;;;;2.00;1.10;;;;;;;26.22;26.35;101507.81;5045083;27;98982;-67
2022/09/03 10:28:51;;;;;;;2.80;1.42;;;;;;;26.21;26.49;101508.81;5049385;27;97526;-68
2022/09/03 10:31:35;;;;;;;3.80;1.30;;;;;;;26.38;26.42;101507.34;5048004;27;97012;-67
2022/09/03 10:34:09;;;;;;;5.18;1.23;;;;;;;25.95;26.82;101499.41;5044488;27;100668;-67
2022/09/03 10:36:44;;;;;;;7.35;1.40;;;;;;;25.77;26.64;101500.06;5048603;27;96758;-67
2022/09/03 10:39:20;;;;;;;3.75;0.85;;;;;;;25.69;26.23;101499.00;5042657;27;96857;-68
2022/09/03 10:42:01;;;;;;;4.22;1.15;;;;;;;25.77;25.90;101500.06;5046672;27;97722;-67
2022/09/03 10:44:57;;;;;;;4.35;1.20;;;;;;;26.10;25.82;101506.19;5043160;27;98917;-67
2022/09/03 10:47:40;;;;;;;1.92;0.70;;;;;;;26.24;25.13;101508.56;5041348;27;96802;-68
2022/09/03 10:50:14;;;;;;;5.63;1.10;;;;;;;26.40;25.37;101489.94;5048151;27;97328;-66
2022/09/03 10:52:59;;;;;;;1.48;0.82;;;;;;;26.31;25.14;101496.19;5048688;27;98893;-67
2022/09/03 10:55:37;;;;;;;2.47;1.13;;;;;;;26.59;25.62;101497.25;5047361;27;98792;-67
2022/09/03 10:58:22;;;;;;;2.05;1.23;;;;;;;26.43;25.09;101481.53;5047417;27;96764;-67
2022/09/03 11:01:01;;;;;;;1.42;1.10;;;;;;;26.68;25.17;101479.28;5045308;27;97092;-67
2022/09/03 11:03:45;;;;;;;4.03;1.92;;;;;;;26.56;25.53;101476.72;5039795;27;99425;-67
2022/09/03 11:06:18;;;;;;;2.08;1.10;;;;;;;26.71;25.35;101484.44;5043002;27;98944;-66
2022/09/03 11:08:51;;;;;;;5.95;1.25;;;;;;;26.67;25.37;101480.28;5048603;27;98098;-68
2022/09/03 11:11:25;;;;;;;4.70;1.50;;;;;;;26.72;25.40;101473.44;5038624;27;97081;-67
2022/09/03 11:13:58;;;;;;;2.60;1.20;;;;;;;26.86;25.09;101469.47;5045434;27;98883;-68
2022/09/03 11:16:31;;;;;;;4.15;1.17;;;;;;;27.13;24.89;101456.06;5037678;27;99544;-67
2022/09/03 11:19:05;;;;;;;2.35;1.00;;;;;;;27.34;24.90;101464.03;5043657;27;97266;-66
2022/09/03 11:21:35;;;;;;;1.80;0.80;;;;;;;27.61;24.75;101461.44;5039844;27;98858;-67
2022/09/03 11:24:09;;;;;;;2.03;0.80;;;;;;;27.52;24.53;101456.88;5038169;27;99405;-66
2022/09/03 11:26:38;;;;;;;4.88;0.80;;;;;;;27.13;23.71;101460.63;5043677;27;97532;-68
2022/09/03 11:29:12;;;;;;;4.90;1.00;;;;;;;26.78;24.39;101455.78;5042289;27;96913;-68
2022/09/03 11:31:46;;;;;;;5.60;1.00;;;;;;;26.74;24.71;101451.63;5048172;27;96773;-67
2022/09/03 11:34:15;;;;;;;2.22;1.10;;;;;;;26.56;24.56;101460.44;5042305;27;99002;-67
2022/09/03 11:36:43;;;;;;;2.78;0.70;;;;;;;26.98;24.13;101450.22;5041032;27;98804;-67
2022/09/03 11:39:23;;;;;;;1.48;0.80;;;;;;;27.16;23.73;101450.38;5039527;27;97663;-66
2022/09/03 11:42:05;;;;;;;2.38;1.00;;;;;;;27.32;24.17;101438.91;5041141;27;96868;-67
2022/09/03 11:44:36;;;;;;;2.63;0.93;;;;;;;27.60;23.49;101442.59;5044143;27;99046;-67
2022/09/03 11:47:15;;;;;;;3.83;1.40;;;;;;;27.44;23.98;101442.31;5045089;27;99208;-66